Time;durP1;ratioP1;P1;durP2;ratioP2;P2;SDS_P1;SDS_P2;PMS_P1;PMS_P2;Temp;Humidity;BMP_temperature;BMP_pressure;BME280_temperature;BME280_humidity;BME280_pressure;Samples;Min_cycle;Max_cycle;Signal;HPM_P1;HPM_P2
2022/03/17 00:02:08;;;;;;;38.17;31.40;;;9.50;99.90;;;;;;5075366;28;20196;-70
2022/03/17 00:04:34;;;;;;;35.88;30.25;;;9.40;99.90;;;;;;5074143;28;20253;-69
2022/03/17 00:07:02;;;;;;;37.28;30.90;;;9.40;99.90;;;;;;5074592;28;20261;-69
2022/03/17 00:09:28;;;;;;;35.97;30.20;;;9.40;99.90;;;;;;5075267;28;20281;-69
2022/03/17 00:11:55;;;;;;;35.85;31.35;;;9.30;99.90;;;;;;5075293;28;20203;-70
2022/03/17 00:14:21;;;;;;;39.78;32.03;;;9.30;99.90;;;;;;5075253;28;20605;-69
2022/03/17 00:16:48;;;;;;;36.30;30.88;;;9.20;99.90;;;;;;5075155;28;20576;-70
2022/03/17 00:19:15;;;;;;;40.13;32.92;;;9.10;99.90;;;;;;5074814;28;20208;-69
2022/03/17 00:21:41;;;;;;;37.28;30.77;;;9.00;99.90;;;;;;5074594;28;20658;-69
2022/03/17 00:24:08;;;;;;;38.47;32.03;;;8.90;99.90;;;;;;5074795;28;20208;-69
2022/03/17 00:26:36;;;;;;;39.72;33.65;;;8.90;99.90;;;;;;5074632;28;20204;-69
2022/03/17 00:29:06;;;;;;;36.95;30.52;;;8.90;99.90;;;;;;5074622;28;20223;-69
2022/03/17 00:31:33;;;;;;;38.25;31.30;;;8.90;99.90;;;;;;5074286;28;20724;-69
2022/03/17 00:33:59;;;;;;;38.33;31.95;;;8.80;99.90;;;;;;5074463;28;20204;-69
2022/03/17 00:36:25;;;;;;;43.40;34.72;;;8.70;99.90;;;;;;5074535;28;20249;-70
2022/03/17 00:38:52;;;;;;;37.97;32.40;;;8.70;99.90;;;;;;5074108;28;20199;-70
2022/03/17 00:41:18;;;;;;;36.47;30.90;;;8.70;99.90;;;;;;5074550;28;20207;-70
2022/03/17 00:43:45;;;;;;;44.00;34.47;;;8.70;99.90;;;;;;5074344;28;20204;-70
2022/03/17 00:46:11;;;;;;;37.25;31.65;;;8.70;99.90;;;;;;5074315;28;20268;-70
2022/03/17 00:48:38;;;;;;;37.67;31.50;;;8.70;99.90;;;;;;5074199;28;20277;-70
2022/03/17 00:51:04;;;;;;;39.90;33.13;;;8.70;99.90;;;;;;5074314;28;20211;-70
2022/03/17 00:53:30;;;;;;;41.38;33.05;;;8.70;99.90;;;;;;5074014;28;20200;-70
2022/03/17 00:55:57;;;;;;;37.08;30.92;;;8.70;99.90;;;;;;5074052;28;20609;-69
2022/03/17 00:58:23;;;;;;;42.03;34.60;;;8.70;99.90;;;;;;5074216;28;20207;-69
2022/03/17 01:00:49;;;;;;;40.50;32.33;;;8.70;99.90;;;;;;5074062;28;20258;-69
2022/03/17 01:03:16;;;;;;;40.90;33.65;;;8.70;99.90;;;;;;5073905;28;20568;-69
2022/03/17 01:05:42;;;;;;;42.08;34.42;;;8.70;99.90;;;;;;5073547;28;20246;-69
2022/03/17 01:08:09;;;;;;;40.55;31.90;;;8.70;99.90;;;;;;5073906;28;20261;-69
2022/03/17 01:10:35;;;;;;;36.55;31.73;;;8.70;99.90;;;;;;5073135;28;20253;-70
2022/03/17 01:13:03;;;;;;;39.17;32.47;;;8.80;99.90;;;;;;5073958;28;20309;-70
2022/03/17 01:15:30;;;;;;;40.15;33.03;;;8.80;99.90;;;;;;5073909;28;20713;-70
2022/03/17 01:17:57;;;;;;;40.17;32.85;;;8.80;99.90;;;;;;5074077;28;20663;-70
2022/03/17 01:20:23;;;;;;;44.00;33.80;;;8.70;99.90;;;;;;5073339;28;20204;-69
2022/03/17 01:22:49;;;;;;;42.42;33.45;;;8.70;99.90;;;;;;5073475;28;20215;-69
2022/03/17 01:25:16;;;;;;;46.40;36.10;;;8.70;99.90;;;;;;5073376;28;20671;-69
2022/03/17 01:27:42;;;;;;;40.47;33.83;;;8.60;99.90;;;;;;5073601;28;20200;-69
2022/03/17 01:30:09;;;;;;;44.75;34.47;;;8.60;99.90;;;;;;5073536;28;20206;-69
2022/03/17 01:32:38;;;;;;;44.67;34.80;;;8.60;99.90;;;;;;5073353;28;20252;-69
2022/03/17 01:35:07;;;;;;;41.88;34.60;;;8.60;99.90;;;;;;5073372;28;20200;-69
2022/03/17 01:37:34;;;;;;;41.67;34.30;;;8.70;99.90;;;;;;5073634;28;20196;-69
2022/03/17 01:40:01;;;;;;;44.75;35.47;;;8.70;99.90;;;;;;5073172;28;20655;-69
2022/03/17 01:42:27;;;;;;;40.00;33.28;;;8.70;99.90;;;;;;5073150;28;20575;-69
2022/03/17 01:44:55;;;;;;;43.45;34.38;;;8.60;99.90;;;;;;5073443;28;20204;-69
2022/03/17 01:47:28;;;;;;;39.28;33.03;;;8.70;99.90;;;;;;5073535;28;20277;-69
2022/03/17 01:50:01;;;;;;;40.97;34.13;;;8.70;99.90;;;;;;5073509;28;20224;-70
2022/03/17 01:52:27;;;;;;;40.47;33.55;;;8.70;99.90;;;;;;5073308;28;20610;-69
2022/03/17 01:54:54;;;;;;;43.70;33.97;;;8.60;99.90;;;;;;5073150;28;20237;-69
2022/03/17 01:57:21;;;;;;;40.80;33.95;;;8.60;99.90;;;;;;5073331;28;20238;-69
2022/03/17 01:59:49;;;;;;;45.47;36.58;;;8.60;99.90;;;;;;5072815;28;20256;-70
2022/03/17 02:02:16;;;;;;;40.90;32.30;;;8.60;99.90;;;;;;5073720;28;20590;-69
2022/03/17 02:04:42;;;;;;;43.33;35.40;;;8.60;99.90;;;;;;5073709;28;20204;-69
2022/03/17 02:07:11;;;;;;;38.67;33.97;;;8.60;99.90;;;;;;5072817;28;20695;-69
2022/03/17 02:09:38;;;;;;;39.58;33.85;;;8.60;99.90;;;;;;5072962;28;20220;-69
2022/03/17 02:14:52;;;;;;;41.85;34.63;;;8.60;99.90;;;;;;5073205;28;20188;-70
2022/03/17 02:17:18;;;;;;;43.72;35.83;;;8.70;99.90;;;;;;5072993;28;20218;-69
2022/03/17 02:19:45;;;;;;;40.25;33.75;;;8.70;99.90;;;;;;5072808;28;20655;-70
2022/03/17 02:22:15;;;;;;;39.88;34.42;;;8.70;99.90;;;;;;5077061;28;20233;-70
2022/03/17 02:27:31;;;;;;;43.60;35.55;;;8.70;99.90;;;;;;5077458;28;20195;-69
2022/03/17 02:29:57;;;;;;;40.15;33.67;;;8.70;99.90;;;;;;5076980;28;20224;-69
2022/03/17 02:32:24;;;;;;;41.92;34.67;;;8.70;99.90;;;;;;5076786;28;20663;-70
2022/03/17 02:34:50;;;;;;;40.40;34.60;;;8.70;99.90;;;;;;5076580;28;20249;-70
2022/03/17 02:37:18;;;;;;;37.35;32.53;;;8.60;99.90;;;;;;5077194;28;20200;-70
2022/03/17 02:39:44;;;;;;;43.72;33.17;;;8.70;99.90;;;;;;5076472;28;20204;-69
2022/03/17 02:42:11;;;;;;;46.08;34.17;;;8.70;99.90;;;;;;5075715;28;20200;-70
2022/03/17 02:44:38;;;;;;;37.17;32.45;;;8.80;99.90;;;;;;5076612;28;20264;-69
2022/03/17 02:47:05;;;;;;;44.13;34.25;;;8.80;99.90;;;;;;5076777;28;20704;-69
2022/03/17 02:49:33;;;;;;;42.22;34.03;;;8.80;99.90;;;;;;5076812;28;20216;-69
2022/03/17 02:51:59;;;;;;;43.42;33.83;;;8.70;99.90;;;;;;5075313;28;20206;-69
2022/03/17 02:54:26;;;;;;;36.88;32.53;;;8.70;99.90;;;;;;5076433;28;20655;-69
2022/03/17 02:56:52;;;;;;;39.80;33.30;;;8.70;99.90;;;;;;5076129;28;20204;-69
2022/03/17 02:59:18;;;;;;;44.05;34.88;;;8.70;99.90;;;;;;5076674;28;20232;-69
2022/03/17 03:01:45;;;;;;;41.17;35.22;;;8.70;99.90;;;;;;5074907;28;20204;-69
2022/03/17 03:04:16;;;;;;;39.22;33.03;;;8.60;99.90;;;;;;5076541;28;20203;-69
2022/03/17 03:06:46;;;;;;;40.10;32.95;;;8.50;99.90;;;;;;5074620;28;20243;-70
2022/03/17 03:09:13;;;;;;;43.30;33.88;;;8.50;99.90;;;;;;5074772;28;20643;-69
2022/03/17 03:11:40;;;;;;;39.00;32.58;;;8.50;99.90;;;;;;5075880;28;20675;-70
2022/03/17 03:14:07;;;;;;;38.00;33.05;;;8.50;99.90;;;;;;5076136;28;20694;-69
2022/03/17 03:16:35;;;;;;;43.08;34.40;;;8.60;99.90;;;;;;5076376;28;20204;-70
2022/03/17 03:19:02;;;;;;;42.92;35.25;;;8.60;99.90;;;;;;5076275;28;20226;-69
2022/03/17 03:21:28;;;;;;;39.40;31.73;;;8.60;99.90;;;;;;5076007;28;20207;-70
2022/03/17 03:23:55;;;;;;;38.80;33.92;;;8.60;99.90;;;;;;5076018;28;20208;-69
2022/03/17 03:26:21;;;;;;;42.17;34.55;;;8.60;99.90;;;;;;5076493;28;20262;-69
2022/03/17 03:28:47;;;;;;;43.40;32.78;;;8.60;99.90;;;;;;5076603;28;20273;-69
2022/03/17 03:31:14;;;;;;;44.58;34.47;;;8.60;99.90;;;;;;5058518;28;20223;-70
2022/03/17 03:33:41;;;;;;;41.63;33.53;;;8.60;99.90;;;;;;5074574;28;20192;-70
2022/03/17 03:38:52;;;;;;;44.30;34.15;;;8.60;99.90;;;;;;5077441;28;20195;-69
2022/03/17 03:41:19;;;;;;;38.40;31.45;;;8.60;99.90;;;;;;5078550;28;20204;-70
2022/03/17 03:43:45;;;;;;;38.58;32.38;;;8.60;99.90;;;;;;5077438;28;20214;-69
2022/03/17 03:46:12;;;;;;;38.22;32.42;;;8.60;99.90;;;;;;5077744;28;20199;-70
2022/03/17 03:48:39;;;;;;;38.58;33.80;;;8.70;99.90;;;;;;5075666;28;20336;-69
2022/03/17 03:51:05;;;;;;;40.08;32.42;;;8.70;99.90;;;;;;5077112;28;20594;-69
2022/03/17 03:56:17;;;;;;;39.42;31.85;;;8.70;99.90;;;;;;5077081;28;20193;-69
2022/03/17 03:58:43;;;;;;;39.03;33.95;;;8.70;99.90;;;;;;5077627;28;20682;-69
2022/03/17 04:01:10;;;;;;;40.63;33.05;;;8.70;99.90;;;;;;5078189;28;20234;-69
2022/03/17 04:03:36;;;;;;;37.45;31.80;;;8.80;99.90;;;;;;5077946;28;20265;-70
2022/03/17 04:06:03;;;;;;;42.60;32.55;;;8.70;99.90;;;;;;5077246;28;20257;-69
2022/03/17 04:08:29;;;;;;;41.30;34.88;;;8.60;99.90;;;;;;5077218;28;20555;-69
2022/03/17 04:10:56;;;;;;;39.47;32.08;;;8.60;99.90;;;;;;5076919;28;20273;-70
2022/03/17 04:13:22;;;;;;;43.25;33.90;;;8.60;99.90;;;;;;5077207;28;20207;-70
2022/03/17 04:15:49;;;;;;;37.72;32.45;;;8.60;99.90;;;;;;5076486;28;20257;-69
2022/03/17 04:18:15;;;;;;;37.38;32.53;;;8.60;99.90;;;;;;5077042;28;20196;-69
2022/03/17 04:20:41;;;;;;;39.17;33.22;;;8.60;99.90;;;;;;5076982;28;20200;-69
2022/03/17 04:23:08;;;;;;;38.03;33.40;;;8.60;99.90;;;;;;5076603;28;20199;-69
2022/03/17 04:25:34;;;;;;;40.60;32.25;;;8.60;99.90;;;;;;5076539;28;20196;-69
2022/03/17 04:28:01;;;;;;;42.25;34.05;;;8.60;99.90;;;;;;5076641;28;20211;-69
2022/03/17 04:30:27;;;;;;;39.53;32.10;;;8.60;99.90;;;;;;5075784;28;20219;-69
2022/03/17 04:32:54;;;;;;;40.88;33.50;;;8.60;99.90;;;;;;5074468;28;20269;-70
2022/03/17 04:35:20;;;;;;;41.20;32.97;;;8.70;99.90;;;;;;5076088;28;20662;-69
2022/03/17 04:37:47;;;;;;;38.40;33.08;;;8.70;99.90;;;;;;5076305;28;20553;-70
2022/03/17 04:40:13;;;;;;;45.67;33.28;;;8.70;99.90;;;;;;5075567;28;20207;-67
2022/03/17 04:42:39;;;;;;;38.53;32.28;;;8.70;99.90;;;;;;5076078;28;20273;-67
2022/03/17 04:45:06;;;;;;;40.78;33.92;;;8.70;99.90;;;;;;5075090;28;20203;-67
2022/03/17 04:47:32;;;;;;;38.25;32.42;;;8.70;99.90;;;;;;5075843;28;20199;-67
2022/03/17 04:49:59;;;;;;;42.70;31.67;;;8.70;99.90;;;;;;5075821;28;20300;-68
2022/03/17 04:55:10;;;;;;;39.67;33.10;;;8.80;99.90;;;;;;5075843;28;20256;-69
2022/03/17 04:57:36;;;;;;;36.90;30.40;;;8.80;99.90;;;;;;5075158;28;20222;-69
2022/03/17 05:00:04;;;;;;;39.80;30.33;;;8.80;99.90;;;;;;5076767;28;20246;-69
2022/03/17 05:02:31;;;;;;;39.70;33.00;;;8.80;99.90;;;;;;5075397;28;20208;-69
2022/03/17 05:05:06;;;;;;;42.17;33.05;;;8.70;99.90;;;;;;5092460;28;20703;-70
2022/03/17 05:07:34;;;;;;;42.70;35.47;;;8.70;99.90;;;;;;5091331;28;20669;-69
2022/03/17 05:10:01;;;;;;;37.70;31.40;;;8.70;99.90;;;;;;5092380;28;20679;-71
2022/03/17 05:12:28;;;;;;;42.10;34.55;;;8.60;99.90;;;;;;5093172;28;20207;-69
2022/03/17 05:14:55;;;;;;;47.83;34.17;;;8.50;99.90;;;;;;5093676;28;20199;-69
2022/03/17 05:17:21;;;;;;;38.90;34.42;;;8.50;99.90;;;;;;5093394;28;20265;-69
2022/03/17 05:19:48;;;;;;;39.13;34.50;;;8.40;99.90;;;;;;5094206;28;20195;-70
2022/03/17 05:22:14;;;;;;;46.05;37.83;;;8.40;99.90;;;;;;5093171;28;20195;-69
2022/03/17 05:24:40;;;;;;;41.10;33.97;;;8.40;99.90;;;;;;5092717;28;20590;-71
2022/03/17 05:27:07;;;;;;;40.22;32.10;;;8.40;99.90;;;;;;5092808;28;20248;-70
2022/03/17 05:29:33;;;;;;;39.08;33.05;;;8.40;99.90;;;;;;5092817;28;20199;-69
2022/03/17 05:32:00;;;;;;;39.90;33.05;;;8.40;99.90;;;;;;5091270;28;20203;-69
2022/03/17 05:34:26;;;;;;;41.17;35.20;;;8.40;99.90;;;;;;5091927;28;20203;-69
2022/03/17 05:36:53;;;;;;;43.33;35.17;;;8.40;99.90;;;;;;5092384;28;20200;-69
2022/03/17 05:39:19;;;;;;;40.33;33.15;;;8.40;99.90;;;;;;5091907;28;20207;-69
2022/03/17 05:41:46;;;;;;;41.85;33.97;;;8.40;99.90;;;;;;5091619;28;20233;-69
2022/03/17 05:44:12;;;;;;;40.55;33.45;;;8.50;99.90;;;;;;5092310;28;20226;-69
2022/03/17 05:46:38;;;;;;;43.30;33.97;;;8.50;99.90;;;;;;5091563;28;20241;-69
2022/03/17 05:49:05;;;;;;;47.60;35.35;;;8.50;99.90;;;;;;5091937;28;20229;-69
2022/03/17 05:51:31;;;;;;;42.40;35.10;;;8.50;99.90;;;;;;5091907;28;20248;-69
2022/03/17 05:53:58;;;;;;;67.65;38.22;;;8.50;99.90;;;;;;5091858;28;20218;-70
2022/03/17 05:56:24;;;;;;;62.40;40.22;;;8.60;99.90;;;;;;5091739;28;20207;-70
2022/03/17 05:58:51;;;;;;;52.47;39.95;;;8.60;99.90;;;;;;5091797;28;20217;-70
2022/03/17 06:01:17;;;;;;;58.42;42.22;;;8.50;99.90;;;;;;5090780;28;20199;-68
2022/03/17 06:03:43;;;;;;;49.28;40.42;;;8.50;99.90;;;;;;5090572;28;20283;-68
2022/03/17 06:06:10;;;;;;;51.30;36.92;;;8.50;99.90;;;;;;5090405;28;20238;-67
2022/03/17 06:08:36;;;;;;;42.38;34.40;;;8.60;99.90;;;;;;5091387;28;20204;-69
2022/03/17 06:11:04;;;;;;;40.60;33.17;;;8.60;99.90;;;;;;5091102;28;20248;-67
2022/03/17 06:13:31;;;;;;;49.08;36.25;;;8.60;99.90;;;;;;5092301;28;20206;-68
2022/03/17 06:15:57;;;;;;;45.30;34.42;;;8.60;99.90;;;;;;5080642;28;20204;-68
2022/03/17 06:18:24;;;;;;;47.20;36.88;;;8.50;99.90;;;;;;5078619;28;20212;-68
2022/03/17 06:20:50;;;;;;;59.83;36.90;;;8.50;99.90;;;;;;5077125;28;20210;-68
2022/03/17 06:23:16;;;;;;;44.30;35.55;;;8.50;99.90;;;;;;5075500;28;20230;-68
2022/03/17 06:25:43;;;;;;;45.95;37.90;;;8.50;99.90;;;;;;5077609;28;20211;-68
2022/03/17 06:28:09;;;;;;;49.65;35.35;;;8.50;99.90;;;;;;5077052;28;20196;-68
2022/03/17 06:30:37;;;;;;;47.85;33.95;;;8.50;99.90;;;;;;5076841;28;20660;-68
2022/03/17 06:33:04;;;;;;;46.08;36.00;;;8.60;99.90;;;;;;5076698;28;20195;-68
2022/03/17 06:35:31;;;;;;;45.55;36.17;;;8.50;99.90;;;;;;5077619;28;20257;-70
2022/03/17 06:38:00;;;;;;;41.00;34.22;;;8.50;99.90;;;;;;5075674;28;20204;-68
2022/03/17 06:40:28;;;;;;;48.78;35.85;;;8.60;99.90;;;;;;5076793;28;20573;-68
2022/03/17 06:42:55;;;;;;;53.67;34.40;;;8.70;99.90;;;;;;5076369;28;20207;-68
2022/03/17 06:45:22;;;;;;;46.30;33.85;;;8.70;99.90;;;;;;5076447;28;20207;-67
2022/03/17 06:47:49;;;;;;;42.88;35.30;;;8.80;99.90;;;;;;5075939;28;20217;-68
2022/03/17 06:50:17;;;;;;;42.08;34.40;;;8.80;99.90;;;;;;5076604;28;20208;-69
2022/03/17 06:52:43;;;;;;;52.45;33.03;;;9.00;99.90;;;;;;5076499;28;20208;-68
2022/03/17 06:55:11;;;;;;;47.53;34.30;;;9.00;99.90;;;;;;5074893;28;20204;-68
2022/03/17 06:57:38;;;;;;;45.78;34.25;;;9.00;99.90;;;;;;5076468;28;20203;-68
2022/03/17 07:00:07;;;;;;;41.58;34.15;;;9.00;99.90;;;;;;5076293;28;20207;-68
2022/03/17 07:02:33;;;;;;;42.80;35.22;;;9.00;99.90;;;;;;5075781;28;20274;-68
2022/03/17 07:05:00;;;;;;;41.88;34.20;;;9.10;99.90;;;;;;5075639;28;20244;-68
2022/03/17 07:07:27;;;;;;;50.72;35.75;;;9.10;99.90;;;;;;5075352;28;20231;-68
2022/03/17 07:09:54;;;;;;;49.13;36.08;;;9.10;99.90;;;;;;5076181;28;20204;-68
2022/03/17 07:12:20;;;;;;;47.75;35.55;;;9.10;99.90;;;;;;5075676;28;20196;-68
2022/03/17 07:14:47;;;;;;;42.25;37.35;;;9.10;99.90;;;;;;5076775;28;20739;-67
2022/03/17 07:17:17;;;;;;;41.80;35.35;;;9.10;99.90;;;;;;5075877;28;20566;-67
2022/03/17 07:19:43;;;;;;;42.53;35.65;;;9.10;99.90;;;;;;5077836;28;20200;-67
2022/03/17 07:22:10;;;;;;;47.30;35.25;;;9.10;99.90;;;;;;5076696;28;20574;-66
2022/03/17 07:24:36;;;;;;;43.08;35.17;;;9.20;99.90;;;;;;5075522;28;20236;-68
2022/03/17 07:27:03;;;;;;;45.60;35.42;;;9.20;99.90;;;;;;5075914;28;20200;-67
2022/03/17 07:29:29;;;;;;;43.13;34.15;;;9.20;99.90;;;;;;5075648;28;20200;-67
2022/03/17 07:31:56;;;;;;;44.30;34.65;;;9.20;99.90;;;;;;5075588;28;20207;-69
2022/03/17 07:34:24;;;;;;;41.45;34.65;;;9.20;99.90;;;;;;5074689;28;20743;-67
2022/03/17 07:36:51;;;;;;;46.80;35.20;;;9.30;99.90;;;;;;5075133;28;20564;-67
2022/03/17 07:39:18;;;;;;;44.47;35.30;;;9.30;99.90;;;;;;5074448;28;20203;-67
2022/03/17 07:41:44;;;;;;;41.90;34.95;;;9.30;99.90;;;;;;5075766;28;20257;-67
2022/03/17 07:44:11;;;;;;;42.85;36.35;;;9.30;99.90;;;;;;5074933;28;20220;-67
2022/03/17 07:46:37;;;;;;;43.28;34.85;;;9.40;99.90;;;;;;5075091;28;20196;-67
2022/03/17 07:49:03;;;;;;;41.10;33.85;;;9.40;99.90;;;;;;5075800;28;20659;-68
2022/03/17 07:51:31;;;;;;;40.70;33.75;;;9.50;99.90;;;;;;5075331;28;20192;-67
2022/03/17 07:53:57;;;;;;;46.97;34.03;;;9.60;99.90;;;;;;5074281;28;20200;-68
2022/03/17 07:56:24;;;;;;;42.00;35.30;;;9.60;99.90;;;;;;5075606;28;20269;-68
2022/03/17 07:58:50;;;;;;;43.08;35.08;;;9.70;99.90;;;;;;5076530;28;20208;-68
2022/03/17 08:01:18;;;;;;;43.65;32.42;;;9.70;99.90;;;;;;5041888;28;20203;-67
2022/03/17 08:03:44;;;;;;;37.33;33.30;;;9.80;99.90;;;;;;5057470;28;20769;-68
2022/03/17 08:06:13;;;;;;;39.95;32.97;;;9.80;99.90;;;;;;5073392;28;20223;-67
2022/03/17 08:08:41;;;;;;;45.00;35.45;;;9.90;99.90;;;;;;5075058;28;20195;-67
2022/03/17 08:11:08;;;;;;;43.97;34.20;;;10.00;99.90;;;;;;5075776;28;20196;-67
2022/03/17 08:13:34;;;;;;;42.97;34.80;;;9.90;99.90;;;;;;5075652;28;20225;-67
2022/03/17 08:16:01;;;;;;;43.92;34.28;;;9.90;99.90;;;;;;5075965;28;20655;-67
2022/03/17 08:18:29;;;;;;;44.85;35.25;;;10.00;99.90;;;;;;5075826;28;20723;-67
2022/03/17 08:20:55;;;;;;;42.67;35.55;;;10.10;99.90;;;;;;5074145;28;20234;-67
2022/03/17 08:23:22;;;;;;;40.75;33.08;;;10.20;99.90;;;;;;5074839;28;20209;-67
2022/03/17 08:25:52;;;;;;;39.05;31.85;;;10.20;99.90;;;;;;5074707;28;20604;-67
2022/03/17 08:28:19;;;;;;;44.17;34.53;;;10.10;99.90;;;;;;5075503;28;20551;-67
2022/03/17 08:30:47;;;;;;;43.97;35.85;;;10.10;99.90;;;;;;5074946;28;20762;-68
2022/03/17 08:33:15;;;;;;;43.17;32.15;;;10.10;99.90;;;;;;5075788;28;20664;-67
2022/03/17 08:35:42;;;;;;;38.78;32.80;;;10.30;99.90;;;;;;5074938;28;20234;-67
2022/03/17 08:38:09;;;;;;;46.00;34.15;;;10.30;99.90;;;;;;5074272;28;20204;-68
2022/03/17 08:40:38;;;;;;;49.78;33.88;;;10.40;99.90;;;;;;5074238;28;20203;-67
2022/03/17 08:43:06;;;;;;;39.30;33.17;;;10.50;99.90;;;;;;5074332;28;20208;-67
2022/03/17 08:51:03;;;;;;;39.67;32.92;;;10.80;99.90;;;;;;5073188;28;20180;-67
2022/03/17 08:53:30;;;;;;;36.75;30.98;;;10.80;99.90;;;;;;5074756;28;20203;-68
2022/03/17 08:55:57;;;;;;;44.20;32.80;;;10.80;99.90;;;;;;5074168;28;20208;-67
2022/03/17 08:58:24;;;;;;;41.05;33.60;;;10.80;99.90;;;;;;5074004;28;20211;-67
2022/03/17 09:00:50;;;;;;;43.42;31.95;;;10.80;99.90;;;;;;5074178;28;20208;-67
2022/03/17 09:03:18;;;;;;;45.05;33.83;;;10.90;99.90;;;;;;5074970;28;20224;-68
2022/03/17 09:05:44;;;;;;;39.40;32.53;;;10.80;99.90;;;;;;5074509;28;20625;-68
2022/03/17 09:08:11;;;;;;;41.67;31.73;;;10.90;99.90;;;;;;5075634;28;20333;-67
2022/03/17 09:10:41;;;;;;;40.83;33.47;;;10.80;99.90;;;;;;5074924;28;20192;-67
2022/03/17 09:13:08;;;;;;;42.60;32.45;;;10.80;99.90;;;;;;5075349;28;20200;-68
2022/03/17 09:15:36;;;;;;;40.42;33.47;;;11.00;99.90;;;;;;5075226;28;20200;-68
2022/03/17 09:18:03;;;;;;;39.97;34.17;;;11.00;99.90;;;;;;5075025;28;20204;-68
2022/03/17 09:20:29;;;;;;;51.47;33.78;;;11.00;99.90;;;;;;5074838;28;20200;-67
2022/03/17 09:22:56;;;;;;;43.35;34.88;;;11.20;99.90;;;;;;5073381;28;20208;-68
2022/03/17 09:25:26;;;;;;;36.85;32.30;;;11.20;99.90;;;;;;5074678;28;20265;-67
2022/03/17 09:27:53;;;;;;;38.47;32.22;;;11.30;99.90;;;;;;5073916;28;20256;-66
2022/03/17 09:30:19;;;;;;;48.50;38.80;;;11.30;99.90;;;;;;5074179;28;20705;-69
2022/03/17 09:32:46;;;;;;;43.35;33.80;;;11.40;99.90;;;;;;5074333;28;20200;-68
2022/03/17 09:35:13;;;;;;;43.53;35.92;;;11.50;99.90;;;;;;5074717;28;20261;-68
2022/03/17 09:37:41;;;;;;;42.70;35.55;;;11.70;99.90;;;;;;5073278;28;20265;-69
2022/03/17 09:40:09;;;;;;;42.35;33.65;;;11.60;99.90;;;;;;5073298;28;20590;-69
2022/03/17 09:42:36;;;;;;;46.03;32.72;;;11.60;99.90;;;;;;5073539;28;20195;-69
2022/03/17 09:45:03;;;;;;;41.70;34.22;;;11.60;99.90;;;;;;5073725;28;20224;-69
2022/03/17 09:47:34;;;;;;;41.08;33.15;;;11.50;99.90;;;;;;5073635;28;20203;-69
2022/03/17 09:50:01;;;;;;;48.90;35.58;;;11.40;99.90;;;;;;5074077;28;20590;-69
2022/03/17 09:52:29;;;;;;;40.97;33.13;;;11.40;99.90;;;;;;5076941;28;20204;-68
2022/03/17 09:54:56;;;;;;;39.67;33.83;;;11.50;99.90;;;;;;5076658;28;20204;-68
2022/03/17 09:57:22;;;;;;;48.92;33.70;;;11.70;99.90;;;;;;5076784;28;20234;-68
2022/03/17 09:59:58;;;;;;;40.20;33.50;;;12.00;99.90;;;;;;5076831;28;20230;-68
2022/03/17 10:02:25;;;;;;;48.25;35.25;;;11.90;99.90;;;;;;5075314;28;20221;-67
2022/03/17 10:04:52;;;;;;;43.50;35.80;;;11.80;99.90;;;;;;5076164;28;20296;-68
2022/03/17 10:07:23;;;;;;;39.63;34.42;;;11.80;99.90;;;;;;5076366;28;20227;-68
2022/03/17 10:09:50;;;;;;;44.03;36.90;;;11.80;99.90;;;;;;5075173;28;20724;-68
2022/03/17 10:12:20;;;;;;;42.08;33.95;;;11.80;99.90;;;;;;5076428;28;20659;-68
2022/03/17 10:14:49;;;;;;;42.30;34.17;;;11.90;99.90;;;;;;5076377;28;20204;-68
2022/03/17 10:17:37;;;;;;;41.28;35.28;;;11.90;99.90;;;;;;5076426;28;20269;-68
2022/03/17 10:20:35;;;;;;;39.50;32.75;;;12.10;99.90;;;;;;5076230;28;20199;-67
2022/03/17 10:23:01;;;;;;;43.05;32.45;;;12.10;99.90;;;;;;5067759;28;20196;-68
2022/03/17 10:25:30;;;;;;;40.90;32.35;;;12.10;99.90;;;;;;5076102;28;20215;-67
2022/03/17 10:27:58;;;;;;;45.10;34.28;;;12.30;99.90;;;;;;5075792;28;20790;-67
2022/03/17 10:30:35;;;;;;;40.33;32.40;;;12.50;99.90;;;;;;5074983;28;20260;-67
2022/03/17 10:33:09;;;;;;;38.72;32.33;;;12.50;99.90;;;;;;5074677;28;20617;-67
2022/03/17 10:35:36;;;;;;;37.60;32.30;;;12.60;99.90;;;;;;5076477;28;20601;-68
2022/03/17 10:38:14;;;;;;;48.65;33.90;;;12.60;99.90;;;;;;5075317;28;20215;-67
2022/03/17 10:40:43;;;;;;;36.95;31.67;;;12.80;99.90;;;;;;5075845;28;20223;-67
2022/03/17 10:43:24;;;;;;;44.30;32.78;;;12.80;99.90;;;;;;5075663;28;20663;-67
2022/03/17 10:46:20;;;;;;;35.27;31.10;;;13.10;99.90;;;;;;5075416;28;20273;-68
2022/03/17 10:49:07;;;;;;;37.70;32.63;;;13.20;99.90;;;;;;5076805;28;20977;-68
2022/03/17 10:51:38;;;;;;;37.60;30.63;;;13.70;99.90;;;;;;5075259;28;21244;-67
2022/03/17 10:54:16;;;;;;;35.63;31.37;;;13.40;99.90;;;;;;5076817;28;20606;-67
2022/03/17 10:56:55;;;;;;;48.37;30.97;;;13.30;99.90;;;;;;5076742;28;20553;-68
2022/03/17 10:59:22;;;;;;;37.87;32.37;;;13.30;99.90;;;;;;5075859;28;20557;-68
2022/03/17 11:01:48;;;;;;;42.20;32.20;;;13.30;99.90;;;;;;5076769;28;20606;-68
2022/03/17 11:04:15;;;;;;;40.93;31.93;;;13.40;99.90;;;;;;5076841;28;20688;-68
2022/03/17 11:06:41;;;;;;;36.90;31.40;;;13.50;99.90;;;;;;5077109;28;20691;-68
2022/03/17 11:09:09;;;;;;;36.27;30.60;;;13.40;99.90;;;;;;5076944;28;20577;-68
2022/03/17 11:11:39;;;;;;;34.83;30.00;;;13.40;99.90;;;;;;5076808;28;20589;-69
2022/03/17 11:14:06;;;;;;;34.97;29.40;;;13.30;99.90;;;;;;5076489;28;20631;-68
2022/03/17 11:16:35;;;;;;;37.70;31.97;;;13.30;99.90;;;;;;5075349;28;20573;-68
2022/03/17 11:19:03;;;;;;;38.33;31.17;;;12.90;99.90;;;;;;5075586;28;20610;-69
2022/03/17 11:21:31;;;;;;;36.90;29.98;;;12.70;99.90;;;;;;5075223;28;20955;-68
2022/03/17 11:24:04;;;;;;;38.70;32.47;;;12.60;99.90;;;;;;5074711;28;20200;-68
2022/03/17 11:26:34;;;;;;;35.00;30.80;;;12.40;99.90;;;;;;5075892;28;20645;-67
2022/03/17 11:29:12;;;;;;;34.53;29.80;;;12.50;99.90;;;;;;5075650;28;20204;-68
2022/03/17 11:31:57;;;;;;;40.53;33.28;;;12.60;99.90;;;;;;5076098;28;20596;-68
2022/03/17 11:34:47;;;;;;;36.97;31.80;;;12.70;99.90;;;;;;5075776;28;20204;-66
2022/03/17 11:37:16;;;;;;;36.85;31.92;;;12.50;99.90;;;;;;5075725;28;20257;-68
2022/03/17 11:40:23;;;;;;;38.50;33.75;;;12.40;99.90;;;;;;5075176;28;20761;-67
2022/03/17 11:43:04;;;;;;;34.72;28.92;;;12.50;99.90;;;;;;5074154;28;20551;-67
2022/03/17 11:45:31;;;;;;;36.85;29.20;;;12.50;99.90;;;;;;5074571;28;20212;-67
2022/03/17 11:48:00;;;;;;;36.97;31.23;;;12.40;99.90;;;;;;5074616;28;20234;-67
2022/03/17 11:50:37;;;;;;;37.47;30.70;;;12.40;99.90;;;;;;5074505;28;20204;-67
2022/03/17 11:53:14;;;;;;;37.65;31.58;;;12.20;99.90;;;;;;5074443;28;20533;-67
2022/03/17 11:55:46;;;;;;;35.15;29.40;;;12.30;99.90;;;;;;5074982;28;20180;-67
2022/03/17 11:58:16;;;;;;;38.42;31.00;;;12.30;99.90;;;;;;5073727;28;20199;-67
2022/03/17 12:00:53;;;;;;;43.70;31.00;;;12.40;99.90;;;;;;5074209;28;20212;-67
2022/03/17 12:03:41;;;;;;;35.87;30.67;;;12.60;99.90;;;;;;5073870;28;20231;-67
2022/03/17 12:06:15;;;;;;;47.22;31.38;;;12.40;99.90;;;;;;5074017;28;20666;-67
2022/03/17 12:08:50;;;;;;;37.90;31.40;;;12.40;99.90;;;;;;5074239;28;20191;-68
2022/03/17 12:11:22;;;;;;;74.40;34.65;;;12.40;99.90;;;;;;5074147;28;20620;-68
2022/03/17 12:14:20;;;;;;;38.20;28.07;;;12.50;99.90;;;;;;5074466;28;20557;-68
2022/03/17 12:16:57;;;;;;;40.22;30.40;;;12.40;99.90;;;;;;5073805;28;20626;-68
2022/03/17 12:19:37;;;;;;;40.63;31.40;;;12.30;99.90;;;;;;5074196;28;20188;-68
2022/03/17 12:22:11;;;;;;;39.63;29.55;;;12.20;99.90;;;;;;5074497;28;20211;-68
2022/03/17 12:24:49;;;;;;;41.20;32.17;;;12.30;99.90;;;;;;5074496;28;20226;-69
2022/03/17 12:27:30;;;;;;;39.55;32.22;;;12.10;99.90;;;;;;5074570;28;20861;-69
2022/03/17 12:30:00;;;;;;;43.10;30.25;;;11.90;99.90;;;;;;5074098;28;20204;-69
2022/03/17 12:32:39;;;;;;;35.97;28.85;;;11.90;99.90;;;;;;5074262;28;20666;-68
2022/03/17 12:35:08;;;;;;;42.05;30.90;;;11.80;99.90;;;;;;5074473;28;20200;-68
2022/03/17 12:37:37;;;;;;;39.08;30.30;;;11.70;99.90;;;;;;5074108;28;20208;-68
2022/03/17 12:40:07;;;;;;;45.15;32.35;;;11.60;99.90;;;;;;5074091;28;20208;-68
2022/03/17 12:42:44;;;;;;;35.05;28.17;;;11.60;99.90;;;;;;5075300;28;20208;-68
2022/03/17 12:45:13;;;;;;;43.35;32.65;;;11.60;99.90;;;;;;5075345;28;20207;-68
2022/03/17 12:47:42;;;;;;;38.20;32.05;;;11.60;99.90;;;;;;5075269;28;20226;-68
2022/03/17 12:50:13;;;;;;;40.13;31.10;;;11.70;99.90;;;;;;5074938;28;20207;-68
2022/03/17 12:52:43;;;;;;;45.03;31.73;;;11.70;99.90;;;;;;5073886;28;20261;-68
2022/03/17 12:55:12;;;;;;;39.83;31.08;;;11.60;99.90;;;;;;5073712;28;20200;-68
2022/03/17 12:57:39;;;;;;;41.97;33.05;;;11.50;99.90;;;;;;5075209;28;20208;-68
2022/03/17 13:00:08;;;;;;;42.38;31.67;;;11.60;99.90;;;;;;5074711;28;20207;-68